Time;durP1;ratioP1;P1;durP2;ratioP2;P2;SDS_P1;SDS_P2;PMS_P1;PMS_P2;Temp;Humidity;BMP_temperature;BMP_pressure;BME280_temperature;BME280_humidity;BME280_pressure;Samples;Min_cycle;Max_cycle;Signal;HPM_P1;HPM_P2
2023/11/13 00:02:06;;;;;;;13.82;6.07;;;;;;;4.70;100.00;96802.25;5023654;28;20397;-84
2023/11/13 00:04:32;;;;;;;10.63;5.57;;;;;;;4.72;100.00;96797.56;5022960;28;20431;-85
2023/11/13 00:06:59;;;;;;;9.38;5.45;;;;;;;4.72;100.00;96794.97;5003730;28;20420;-85
2023/11/13 00:09:25;;;;;;;10.48;5.13;;;;;;;4.72;100.00;96792.34;5020466;28;20750;-85
2023/11/13 00:11:53;;;;;;;7.47;4.50;;;;;;;4.72;100.00;96793.13;5020713;28;20404;-84
2023/11/13 00:14:19;;;;;;;7.93;4.30;;;;;;;4.73;100.00;96791.31;5020745;28;20397;-84
2023/11/13 00:16:45;;;;;;;7.32;4.03;;;;;;;4.74;100.00;96787.63;5021632;28;20407;-84
2023/11/13 00:19:13;;;;;;;5.82;3.70;;;;;;;4.74;100.00;96782.41;5022843;28;20404;-85
2023/11/13 00:21:39;;;;;;;4.72;3.40;;;;;;;4.74;100.00;96785.81;5023429;28;20435;-85
2023/11/13 00:24:06;;;;;;;5.20;3.80;;;;;;;4.76;100.00;96775.09;5023924;28;20397;-84
2023/11/13 00:26:33;;;;;;;5.60;3.70;;;;;;;4.77;100.00;96769.66;5022773;28;20797;-84
2023/11/13 00:29:01;;;;;;;6.55;4.07;;;;;;;4.76;100.00;96785.59;5022189;28;20468;-85
2023/11/13 00:31:27;;;;;;;7.35;4.15;;;;;;;4.77;100.00;96789.81;5022420;28;20797;-85
2023/11/13 00:33:54;;;;;;;6.68;4.43;;;;;;;4.76;100.00;96778.53;5009841;28;20911;-85
2023/11/13 00:36:21;;;;;;;8.63;4.82;;;;;;;4.76;100.00;96778.53;5005291;28;20422;-85
2023/11/13 00:38:48;;;;;;;8.15;4.57;;;;;;;4.77;100.00;96763.59;5003957;28;20407;-84
2023/11/13 00:41:14;;;;;;;8.32;4.40;;;;;;;4.77;100.00;96758.34;4984255;28;20461;-85
2023/11/13 00:43:42;;;;;;;6.70;4.00;;;;;;;4.77;100.00;96774.09;5002946;28;20444;-84
2023/11/13 00:46:08;;;;;;;7.10;4.15;;;;;;;4.78;100.00;96776.47;5020068;28;20478;-84
2023/11/13 00:48:37;;;;;;;6.15;4.18;;;;;;;4.80;100.00;96765.78;5020330;28;20488;-84
2023/11/13 00:51:04;;;;;;;11.52;5.45;;;;;;;4.81;100.00;96759.50;5020574;28;20396;-84
2023/11/13 00:53:36;;;;;;;24.50;10.85;;;;;;;4.82;100.00;96758.47;5004294;28;20404;-84
2023/11/13 00:56:04;;;;;;;29.13;13.13;;;;;;;4.89;100.00;96746.81;5023806;28;20401;-85
2023/11/13 00:58:30;;;;;;;33.88;13.43;;;;;;;4.94;100.00;96748.78;5006514;28;20413;-86
2023/11/13 01:00:57;;;;;;;35.35;14.52;;;;;;;4.97;100.00;96745.66;5004943;28;20404;-84
2023/11/13 01:03:23;;;;;;;29.63;13.65;;;;;;;5.01;100.00;96752.06;5020790;28;20735;-82
2023/11/13 01:05:50;;;;;;;33.70;14.82;;;;;;;5.02;100.00;96745.78;5019311;28;20520;-85
2023/11/13 01:08:16;;;;;;;33.63;14.63;;;;;;;5.04;100.00;96749.75;5018468;28;20881;-83
2023/11/13 01:10:43;;;;;;;25.77;12.07;;;;;;;5.07;100.00;96753.75;5017939;28;20447;-82
2023/11/13 01:13:10;;;;;;;22.00;10.30;;;;;;;5.08;100.00;96757.97;5017310;28;20424;-84
2023/11/13 01:15:36;;;;;;;18.47;9.77;;;;;;;5.10;100.00;96748.06;5027724;28;20421;-85
2023/11/13 01:18:02;;;;;;;17.35;8.82;;;;;;;5.15;100.00;96749.97;5021508;28;20413;-84
2023/11/13 01:20:28;;;;;;;16.02;8.30;;;;;;;5.16;100.00;96747.13;5019390;28;20599;-84
2023/11/13 01:22:54;;;;;;;15.40;8.07;;;;;;;5.19;100.00;96751.13;5019607;28;20408;-84
2023/11/13 01:25:21;;;;;;;21.17;9.15;;;;;;;5.21;100.00;96751.66;5021013;28;20417;-84
2023/11/13 01:27:48;;;;;;;18.95;9.50;;;;;;;5.24;100.00;96748.59;5002019;28;20421;-84
2023/11/13 01:30:15;;;;;;;15.20;8.02;;;;;;;5.28;100.00;96749.69;5020914;28;20425;-84
2023/11/13 01:32:41;;;;;;;13.77;7.25;;;;;;;5.28;100.00;96740.00;5023355;28;20403;-84
2023/11/13 01:35:07;;;;;;;16.70;7.40;;;;;;;5.32;100.00;96732.47;5023141;28;20463;-84
2023/11/13 01:37:34;;;;;;;9.93;5.95;;;;;;;5.33;100.00;96727.00;5023708;28;20400;-84
2023/11/13 01:40:00;;;;;;;9.57;5.53;;;;;;;5.35;100.00;96717.06;5021516;28;20910;-84
2023/11/13 01:42:26;;;;;;;10.98;5.95;;;;;;;5.38;100.00;96710.53;5019054;28;20412;-84
2023/11/13 01:44:55;;;;;;;7.38;4.55;;;;;;;5.40;100.00;96709.28;5018819;28;20401;-84
2023/11/13 01:47:22;;;;;;;9.50;5.45;;;;;;;5.41;100.00;96710.84;5019349;28;20427;-84
2023/11/13 01:49:49;;;;;;;15.40;7.88;;;;;;;5.43;100.00;96708.00;5019671;28;20432;-84
2023/11/13 01:52:15;;;;;;;16.15;7.60;;;;;;;5.47;100.00;96714.41;5019206;28;20408;-85
2023/11/13 01:54:42;;;;;;;16.02;7.45;;;;;;;5.51;100.00;96718.13;5018835;28;20409;-84
2023/11/13 01:57:09;;;;;;;11.82;6.20;;;;;;;5.55;100.00;96727.16;5019272;28;20405;-84
2023/11/13 01:59:39;;;;;;;24.42;9.18;;;;;;;5.56;100.00;96720.88;5017920;28;20395;-84
2023/11/13 02:02:07;;;;;;;19.30;8.50;;;;;;;5.58;100.00;96712.72;5019385;28;20393;-84
2023/11/13 02:04:33;;;;;;;20.00;9.10;;;;;;;5.61;100.00;96712.28;5023314;28;20420;-85
2023/11/13 02:07:00;;;;;;;19.33;9.00;;;;;;;5.63;100.00;96705.75;5019685;28;20913;-82
2023/11/13 02:09:27;;;;;;;17.88;8.63;;;;;;;5.67;100.00;96706.06;5017376;28;20876;-84
2023/11/13 02:11:53;;;;;;;17.30;8.25;;;;;;;5.69;100.00;96709.28;5018114;28;20439;-83
2023/11/13 02:14:20;;;;;;;13.43;7.38;;;;;;;5.70;100.00;96703.78;5019931;28;20423;-82
2023/11/13 02:16:46;;;;;;;11.43;6.65;;;;;;;5.72;100.00;96703.53;5020000;28;20488;-81
2023/11/13 02:19:16;;;;;;;8.87;5.57;;;;;;;5.72;100.00;96699.06;5019962;28;20395;-81
2023/11/13 02:21:43;;;;;;;7.50;4.78;;;;;;;5.72;100.00;96690.41;5019796;28;20409;-82
2023/11/13 02:24:12;;;;;;;5.82;4.20;;;;;;;5.71;100.00;96681.72;5019491;28;20400;-81
2023/11/13 02:26:38;;;;;;;4.93;3.60;;;;;;;5.71;100.00;96675.72;5019983;28;20501;-82
2023/11/13 02:29:04;;;;;;;5.22;3.63;;;;;;;5.70;100.00;96663.59;5019984;28;20431;-82
2023/11/13 02:31:31;;;;;;;10.85;5.00;;;;;;;5.68;100.00;96666.47;5019246;28;20393;-82
2023/11/13 02:33:57;;;;;;;5.97;3.83;;;;;;;5.69;100.00;96659.38;5005127;28;20440;-82
2023/11/13 02:36:23;;;;;;;7.50;4.40;;;;;;;5.69;100.00;96651.50;5000159;28;20460;-83
2023/11/13 02:38:49;;;;;;;8.95;4.70;;;;;;;5.69;100.00;96662.00;4999930;28;20397;-82
2023/11/13 02:41:17;;;;;;;7.40;4.40;;;;;;;5.69;100.00;96659.38;4934300;28;1905565;-82
2023/11/13 02:43:43;;;;;;;9.63;4.75;;;;;;;5.71;100.00;96667.81;5004898;28;20400;-82
2023/11/13 02:46:09;;;;;;;12.30;5.93;;;;;;;5.71;100.00;96654.69;5021062;28;20397;-82
2023/11/13 02:48:35;;;;;;;14.02;7.00;;;;;;;5.74;100.00;96651.59;5020705;28;20404;-82
2023/11/13 02:51:02;;;;;;;15.52;7.00;;;;;;;5.77;100.00;96643.25;5020246;28;20415;-83
2023/11/13 02:53:28;;;;;;;12.95;7.63;;;;;;;5.80;100.00;96637.50;5020421;28;20424;-82
2023/11/13 02:55:54;;;;;;;18.83;8.73;;;;;;;5.82;100.00;96641.47;5020276;28;20419;-82
2023/11/13 02:58:21;;;;;;;11.00;6.50;;;;;;;5.85;100.00;96634.97;5020233;28;20408;-83
2023/11/13 03:00:47;;;;;;;11.25;5.95;;;;;;;5.85;100.00;96632.34;5020461;28;20475;-82
2023/11/13 03:03:14;;;;;;;10.10;5.72;;;;;;;5.88;100.00;96637.13;5020839;28;20397;-83
2023/11/13 03:05:40;;;;;;;10.32;5.88;;;;;;;5.90;100.00;96640.31;5019609;28;20468;-83
2023/11/13 03:08:06;;;;;;;8.25;5.20;;;;;;;5.93;100.00;96649.56;5020459;28;20443;-82
2023/11/13 03:10:32;;;;;;;6.28;4.70;;;;;;;5.94;100.00;96654.56;5020715;28;20393;-82
2023/11/13 03:12:58;;;;;;;6.00;4.03;;;;;;;5.96;100.00;96654.31;5020358;28;20393;-83
2023/11/13 03:15:26;;;;;;;6.05;3.80;;;;;;;5.95;100.00;96658.78;5020323;28;20877;-83
2023/11/13 03:17:52;;;;;;;5.88;3.60;;;;;;;5.94;100.00;96665.06;5019939;28;20483;-83
2023/11/13 03:20:18;;;;;;;5.03;3.50;;;;;;;5.96;100.00;96670.06;5020103;28;20411;-83
2023/11/13 03:22:44;;;;;;;6.13;3.42;;;;;;;5.97;100.00;96672.47;5019616;28;20703;-83
2023/11/13 03:25:13;;;;;;;5.20;3.13;;;;;;;5.98;100.00;96674.06;5020013;28;20401;-83
2023/11/13 03:27:39;;;;;;;4.95;3.20;;;;;;;6.00;100.00;96671.22;5018768;28;20412;-83
2023/11/13 03:30:06;;;;;;;6.47;4.10;;;;;;;6.03;100.00;96678.59;5022084;28;20515;-82
2023/11/13 03:32:34;;;;;;;5.70;3.50;;;;;;;6.05;100.00;96674.69;5019902;28;20435;-84
2023/11/13 03:35:00;;;;;;;5.32;3.28;;;;;;;6.07;100.00;96679.72;5002736;28;20429;-82
2023/11/13 03:37:26;;;;;;;4.00;3.10;;;;;;;6.09;100.00;96681.06;5000564;28;20414;-83
2023/11/13 03:39:52;;;;;;;3.97;2.88;;;;;;;6.13;100.00;96684.00;5000308;28;20399;-83
2023/11/13 03:42:18;;;;;;;3.07;2.50;;;;;;;6.18;100.00;96690.13;4999142;28;20939;-81
2023/11/13 03:44:45;;;;;;;3.28;2.33;;;;;;;6.27;100.00;96687.91;5010323;28;20455;-81
2023/11/13 03:47:11;;;;;;;3.35;2.17;;;;;;;6.35;100.00;96695.38;5022114;28;20428;-82
2023/11/13 03:49:39;;;;;;;2.60;2.00;;;;;;;6.41;100.00;96697.03;5024803;28;20408;-82
2023/11/13 03:52:06;;;;;;;5.65;2.20;;;;;;;6.47;100.00;96697.91;5020603;28;20405;-83
2023/11/13 03:54:32;;;;;;;6.47;2.60;;;;;;;6.55;100.00;96690.41;5021287;28;20447;-83
2023/11/13 03:56:58;;;;;;;3.47;2.00;;;;;;;6.66;100.00;96693.19;5020588;28;20397;-83
2023/11/13 03:59:24;;;;;;;5.30;2.03;;;;;;;6.78;100.00;96689.41;5019442;28;20405;-82
2023/11/13 04:01:51;;;;;;;2.25;2.00;;;;;;;6.86;100.00;96693.44;5001151;28;20397;-82
2023/11/13 04:04:17;;;;;;;2.03;1.83;;;;;;;6.89;100.00;96698.22;5019572;28;20447;-83
2023/11/13 04:06:44;;;;;;;3.92;2.00;;;;;;;6.91;100.00;96698.78;5019635;28;20508;-82
2023/11/13 04:09:10;;;;;;;4.97;2.40;;;;;;;6.93;100.00;96713.25;5020050;28;20401;-82
2023/11/13 04:11:37;;;;;;;5.00;2.10;;;;;;;6.97;100.00;96716.22;5020022;28;20407;-83
2023/11/13 04:14:03;;;;;;;2.08;1.80;;;;;;;6.96;100.00;96715.41;5019388;28;20463;-83
2023/11/13 04:16:29;;;;;;;4.80;2.00;;;;;;;6.96;100.00;96717.25;5019287;28;20396;-83
2023/11/13 04:18:55;;;;;;;3.63;2.20;;;;;;;6.96;100.00;96728.56;5019525;28;20520;-83
2023/11/13 04:21:22;;;;;;;3.45;1.90;;;;;;;6.98;100.00;96736.22;5018087;28;20444;-82
2023/11/13 04:23:49;;;;;;;3.30;2.00;;;;;;;6.93;100.00;96726.41;5018384;28;20401;-82
2023/11/13 04:26:15;;;;;;;5.30;2.35;;;;;;;6.90;100.00;96739.28;5025767;28;20747;-83
2023/11/13 04:28:41;;;;;;;3.00;2.10;;;;;;;6.95;100.00;96741.97;5018853;28;20404;-81
2023/11/13 04:31:08;;;;;;;5.65;1.98;;;;;;;6.99;100.00;96746.50;5018286;28;20405;-82
2023/11/13 04:33:34;;;;;;;4.05;1.90;;;;;;;7.03;100.00;96746.81;5018969;28;20766;-82
2023/11/13 04:36:01;;;;;;;1.80;1.48;;;;;;;7.05;100.00;96750.00;5018613;28;20397;-83
2023/11/13 04:38:27;;;;;;;9.88;2.20;;;;;;;7.03;100.00;96753.91;5018686;28;20405;-83
2023/11/13 04:40:55;;;;;;;3.70;1.97;;;;;;;7.04;100.00;96742.34;5018475;28;20535;-83
2023/11/13 04:43:21;;;;;;;5.97;2.63;;;;;;;7.07;100.00;96742.63;5018456;28;20885;-83
2023/11/13 04:45:47;;;;;;;5.40;1.70;;;;;;;7.09;100.00;96745.03;5018683;28;20396;-83
2023/11/13 04:48:13;;;;;;;4.32;2.05;;;;;;;7.07;100.00;96740.00;5014036;28;20467;-83
2023/11/13 04:50:39;;;;;;;14.80;2.60;;;;;;;7.09;100.00;96740.56;5009558;28;20397;-84
2023/11/13 04:53:06;;;;;;;6.90;1.85;;;;;;;7.10;100.00;96736.09;5007580;28;20896;-84
2023/11/13 04:55:33;;;;;;;3.13;1.98;;;;;;;7.10;100.00;96729.00;5007586;28;20398;-84
2023/11/13 04:58:02;;;;;;;5.30;2.17;;;;;;;7.09;100.00;96735.31;5000975;28;20397;-83
2023/11/13 05:00:28;;;;;;;2.85;1.70;;;;;;;7.08;100.00;96732.91;5013907;28;20834;-83
2023/11/13 05:02:54;;;;;;;3.22;1.83;;;;;;;7.06;100.00;96742.91;5006831;28;20407;-83
2023/11/13 05:05:20;;;;;;;3.83;1.60;;;;;;;7.02;100.00;96747.06;5009240;28;20408;-82
2023/11/13 05:07:46;;;;;;;2.50;1.50;;;;;;;6.98;100.00;96742.28;5006459;28;20420;-84
2023/11/13 05:10:13;;;;;;;1.73;1.38;;;;;;;6.95;100.00;96747.22;5006738;28;20900;-83
2023/11/13 05:12:39;;;;;;;2.50;1.30;;;;;;;6.91;100.00;96752.19;5007407;28;20438;-83
2023/11/13 05:15:07;;;;;;;3.60;1.52;;;;;;;6.93;100.00;96744.03;5006221;28;20412;-83
2023/11/13 05:17:37;;;;;;;6.30;1.90;;;;;;;6.97;100.00;96748.59;5003927;28;20397;-83
2023/11/13 05:20:05;;;;;;;6.13;2.03;;;;;;;7.00;100.00;96742.03;5010652;28;20735;-82
2023/11/13 05:22:31;;;;;;;12.43;2.40;;;;;;;7.02;100.00;96741.78;5010047;28;20393;-82
2023/11/13 05:24:57;;;;;;;4.80;1.73;;;;;;;7.02;100.00;96747.84;5008834;28;21002;-81
2023/11/13 05:27:23;;;;;;;5.90;2.17;;;;;;;7.08;100.00;96741.59;5006986;28;20419;-81
2023/11/13 05:29:49;;;;;;;2.47;1.60;;;;;;;7.11;100.00;96742.97;5008722;28;20434;-82
2023/11/13 05:32:17;;;;;;;6.93;1.95;;;;;;;7.13;100.00;96735.63;5007291;28;20405;-82
2023/11/13 05:34:43;;;;;;;15.55;2.85;;;;;;;7.13;100.00;96740.88;5013203;28;20437;-81
2023/11/13 05:37:09;;;;;;;14.80;2.55;;;;;;;7.18;100.00;96736.47;5017399;28;20416;-83
2023/11/13 05:39:35;;;;;;;19.27;3.47;;;;;;;7.21;100.00;96743.09;5013038;28;20840;-83
2023/11/13 05:42:01;;;;;;;12.60;3.00;;;;;;;7.25;100.00;96738.91;5022963;28;20968;-83
2023/11/13 05:44:28;;;;;;;7.88;2.25;;;;;;;7.28;100.00;96749.78;5015034;28;20916;-85
2023/11/13 05:46:54;;;;;;;7.63;2.22;;;;;;;7.27;100.00;96750.81;5016890;28;20425;-81
2023/11/13 05:49:22;;;;;;;4.82;1.90;;;;;;;7.25;100.00;96754.72;5008783;28;20495;-81
2023/11/13 05:51:48;;;;;;;4.78;1.90;;;;;;;7.22;100.00;96750.72;5006321;28;20804;-81
2023/11/13 05:54:14;;;;;;;10.20;2.25;;;;;;;7.22;100.00;96761.25;5005801;28;20408;-83
2023/11/13 05:56:40;;;;;;;10.02;2.55;;;;;;;7.24;100.00;96763.66;5015165;28;20422;-82
2023/11/13 05:59:08;;;;;;;11.45;2.60;;;;;;;7.26;100.00;96761.56;5005408;28;20441;-82
2023/11/13 06:01:35;;;;;;;14.32;2.53;;;;;;;7.28;100.00;96749.78;5002863;28;20959;-81
2023/11/13 06:04:01;;;;;;;8.20;2.78;;;;;;;7.31;100.00;96757.16;5008871;28;20499;-81
2023/11/13 06:06:29;;;;;;;20.50;3.28;;;;;;;7.34;100.00;96753.25;5017346;28;20415;-81
2023/11/13 06:08:55;;;;;;;26.35;3.60;;;;;;;7.36;100.00;96757.25;5016910;28;20396;-82
2023/11/13 06:11:21;;;;;;;16.92;3.38;;;;;;;7.37;100.00;96763.28;5016708;28;20460;-82
2023/11/13 06:13:48;;;;;;;19.57;3.93;;;;;;;7.39;100.00;96758.56;5015925;28;20762;-82
2023/11/13 06:16:15;;;;;;;21.08;3.72;;;;;;;7.42;100.00;96771.25;5018198;28;20408;-82
2023/11/13 06:18:46;;;;;;;26.67;3.90;;;;;;;7.44;100.00;96757.84;5019673;28;20408;-82
2023/11/13 06:21:12;;;;;;;10.18;2.40;;;;;;;7.45;100.00;96764.69;5002353;28;20398;-82
2023/11/13 06:23:41;;;;;;;6.68;2.47;;;;;;;7.44;100.00;96771.81;4996896;28;20918;-81
2023/11/13 06:26:08;;;;;;;12.63;2.88;;;;;;;7.41;100.00;96780.19;4996755;28;20883;-82
2023/11/13 06:28:34;;;;;;;7.40;2.13;;;;;;;7.40;100.00;96783.84;4997068;28;20818;-80
2023/11/13 06:31:01;;;;;;;7.13;2.30;;;;;;;7.39;100.00;96777.00;4995996;28;20410;-81
2023/11/13 06:33:27;;;;;;;6.32;2.08;;;;;;;7.39;100.00;96777.00;4998543;28;20402;-80
2023/11/13 06:35:54;;;;;;;4.90;1.95;;;;;;;7.37;100.00;96777.22;4996160;28;20402;-81
2023/11/13 06:38:20;;;;;;;4.18;1.63;;;;;;;7.34;100.00;96788.28;5011121;28;20713;-81
2023/11/13 06:40:49;;;;;;;2.97;1.48;;;;;;;7.31;100.00;96775.59;5015999;28;20896;-84
2023/11/13 06:43:19;;;;;;;5.35;2.33;;;;;;;7.31;100.00;96775.59;5015381;28;20892;-82
2023/11/13 06:45:45;;;;;;;8.07;2.17;;;;;;;7.29;100.00;96769.00;4997529;28;20402;-82
2023/11/13 06:48:11;;;;;;;5.07;2.20;;;;;;;7.28;100.00;96772.66;5003497;28;20481;-82
2023/11/13 06:50:38;;;;;;;4.43;2.10;;;;;;;7.27;100.00;96766.59;4996234;28;20878;-82
2023/11/13 06:53:04;;;;;;;4.32;1.70;;;;;;;7.27;100.00;96771.06;5007570;28;20412;-82
2023/11/13 06:55:31;;;;;;;2.00;1.60;;;;;;;7.26;100.00;96770.28;5017092;28;20401;-82
2023/11/13 06:57:59;;;;;;;2.85;1.75;;;;;;;7.24;100.00;96769.72;5005891;28;20775;-82
2023/11/13 07:00:25;;;;;;;6.93;2.13;;;;;;;7.24;100.00;96774.19;4983400;28;20489;-83
2023/11/13 07:02:52;;;;;;;3.88;2.20;;;;;;;7.23;100.00;96780.47;4999907;28;20481;-82
2023/11/13 07:05:19;;;;;;;4.53;2.15;;;;;;;7.22;100.00;96784.16;5001046;28;20402;-83
2023/11/13 07:07:47;;;;;;;3.80;1.88;;;;;;;7.21;100.00;96786.00;5019517;28;20424;-82
2023/11/13 07:10:13;;;;;;;5.03;1.88;;;;;;;7.21;100.00;96791.28;5024809;28;20419;-81
2023/11/13 07:12:40;;;;;;;2.90;1.63;;;;;;;7.21;100.00;96801.81;5024934;28;20423;-82
2023/11/13 07:15:08;;;;;;;4.05;1.90;;;;;;;7.22;100.00;96811.25;5008007;28;20771;-81
2023/11/13 07:17:36;;;;;;;1.60;1.50;;;;;;;7.23;100.00;96817.34;5003401;28;20406;-80
2023/11/13 07:20:03;;;;;;;3.58;1.85;;;;;;;7.22;100.00;96824.44;5006614;28;20402;-79
2023/11/13 07:22:31;;;;;;;6.22;2.20;;;;;;;7.23;100.00;96828.66;5000972;28;20882;-80
2023/11/13 07:24:57;;;;;;;5.93;2.10;;;;;;;7.24;100.00;96832.09;5004407;28;20451;-80
2023/11/13 07:27:23;;;;;;;6.72;2.30;;;;;;;7.25;100.00;96826.59;5019899;28;20515;-80
2023/11/13 07:29:50;;;;;;;4.93;2.00;;;;;;;7.27;100.00;96823.72;5015018;28;20435;-81
2023/11/13 07:32:17;;;;;;;4.87;2.00;;;;;;;7.29;100.00;96825.03;5014466;28;20404;-81
2023/11/13 07:34:43;;;;;;;3.28;2.05;;;;;;;7.32;100.00;96834.31;5011163;28;20441;-79
2023/11/13 07:37:10;;;;;;;6.97;1.80;;;;;;;7.33;100.00;96843.78;5008973;28;20409;-81
2023/11/13 07:39:36;;;;;;;3.85;1.70;;;;;;;7.35;100.00;96839.09;5019702;28;21054;-81
2023/11/13 07:42:03;;;;;;;3.60;2.03;;;;;;;7.36;100.00;96830.16;5015928;28;20817;-79
2023/11/13 07:44:29;;;;;;;1.80;1.30;;;;;;;7.38;100.00;96825.44;5021651;28;20404;-81
2023/11/13 07:46:56;;;;;;;2.40;1.50;;;;;;;7.38;100.00;96818.31;5005549;28;20417;-80
2023/11/13 07:49:23;;;;;;;3.08;1.80;;;;;;;7.38;100.00;96807.78;5021669;28;20400;-81
2023/11/13 07:51:49;;;;;;;5.88;2.00;;;;;;;7.40;100.00;96810.19;5019788;28;20401;-81
2023/11/13 07:54:16;;;;;;;5.28;2.10;;;;;;;7.41;100.00;96819.69;5013232;28;20429;-79
2023/11/13 07:56:42;;;;;;;5.87;2.10;;;;;;;7.42;100.00;96815.22;5016526;28;20439;-78
2023/11/13 07:59:11;;;;;;;3.97;2.10;;;;;;;7.45;100.00;96833.16;5016374;28;20405;-78
2023/11/13 08:01:38;;;;;;;5.00;2.20;;;;;;;7.48;100.00;96830.03;5006638;28;20408;-79
2023/11/13 08:04:07;;;;;;;18.38;3.65;;;;;;;7.49;100.00;96836.91;4987894;28;20401;-79
2023/11/13 08:06:34;;;;;;;11.60;2.95;;;;;;;7.53;100.00;96854.59;5013317;28;20488;-79
2023/11/13 08:09:07;;;;;;;18.50;3.75;;;;;;;7.58;100.00;96851.25;5024376;28;20439;-79
2023/11/13 08:11:34;;;;;;;9.57;2.80;;;;;;;7.61;100.00;96842.81;5022028;28;20389;-78
2023/11/13 08:14:00;;;;;;;6.95;2.38;;;;;;;7.62;100.00;96841.78;5020059;28;20397;-79
2023/11/13 08:16:27;;;;;;;15.77;5.30;;;;;;;7.64;100.00;96845.78;5009504;28;20406;-79
2023/11/13 08:18:53;;;;;;;28.45;12.10;;;;;;;7.66;100.00;96840.28;5002488;28;20394;-79
2023/11/13 08:21:19;;;;;;;16.90;7.97;;;;;;;7.66;100.00;96846.34;5010624;28;20405;-79
2023/11/13 08:23:47;;;;;;;16.50;6.50;;;;;;;7.67;100.00;96844.47;5021791;28;20472;-80
2023/11/13 08:26:14;;;;;;;8.38;4.63;;;;;;;7.67;100.00;96844.47;5008454;28;20434;-79
2023/11/13 08:28:40;;;;;;;6.88;3.90;;;;;;;7.68;100.00;96832.91;5021312;28;20421;-79
2023/11/13 08:31:07;;;;;;;4.63;3.25;;;;;;;7.68;100.00;96827.63;5020780;28;20415;-80
2023/11/13 08:33:33;;;;;;;4.90;2.90;;;;;;;7.68;100.00;96841.59;5023533;28;20409;-79
2023/11/13 08:36:00;;;;;;;4.60;2.30;;;;;;;7.68;100.00;96836.34;5019819;28;20397;-80
2023/11/13 08:38:26;;;;;;;5.38;2.40;;;;;;;7.68;100.00;96825.00;5018545;28;20437;-80
2023/11/13 08:40:55;;;;;;;2.53;2.00;;;;;;;7.67;100.00;96837.38;5003913;28;20407;-79
2023/11/13 08:43:21;;;;;;;2.90;2.08;;;;;;;7.67;100.00;96828.66;5009068;28;20401;-79
2023/11/13 08:45:47;;;;;;;2.13;1.70;;;;;;;7.66;100.00;96817.38;5023587;28;20765;-80
2023/11/13 08:48:13;;;;;;;2.38;1.90;;;;;;;7.66;100.00;96808.66;5026054;28;20451;-86
2023/11/13 08:50:43;;;;;;;11.00;2.70;;;;;;;7.68;100.00;96801.28;5032666;28;20551;-84
2023/11/13 08:53:10;;;;;;;8.50;2.40;;;;;;;7.69;100.00;96793.16;5031808;28;20388;-86
2023/11/13 08:55:36;;;;;;;5.93;2.20;;;;;;;7.70;100.00;96793.94;5011407;28;20413;-83
2023/11/13 08:58:06;;;;;;;5.65;2.22;;;;;;;7.72;100.00;96792.66;5009630;28;20414;-84
2023/11/13 09:00:40;;;;;;;4.13;1.98;;;;;;;7.72;100.00;96792.66;5019130;28;20380;-86
2023/11/13 09:03:09;;;;;;;9.75;2.65;;;;;;;7.73;100.00;96785.56;5030257;28;20416;-84
2023/11/13 09:05:36;;;;;;;5.85;1.95;;;;;;;7.75;100.00;96778.97;5028140;28;20401;-82
2023/11/13 09:08:02;;;;;;;3.70;1.63;;;;;;;7.79;100.00;96766.13;5025250;28;20420;-84
2023/11/13 09:10:29;;;;;;;2.53;1.63;;;;;;;7.82;100.00;96765.63;5031938;28;20413;-84
2023/11/13 09:13:00;;;;;;;8.20;2.43;;;;;;;7.84;100.00;96757.47;5029566;28;20462;-84
2023/11/13 09:15:29;;;;;;;5.55;2.13;;;;;;;7.85;100.00;96756.44;5029458;28;20515;-85
2023/11/13 09:17:58;;;;;;;10.13;2.95;;;;;;;7.85;100.00;96761.69;5029011;28;20409;-83
2023/11/13 09:20:25;;;;;;;3.72;2.28;;;;;;;7.85;100.00;96762.50;5029601;28;20401;-85
2023/11/13 09:22:52;;;;;;;4.40;2.33;;;;;;;7.86;100.00;96750.13;5017076;28;20398;-83
2023/11/13 09:25:19;;;;;;;5.55;3.35;;;;;;;7.88;100.00;96751.47;5009054;28;20406;-84
2023/11/13 09:27:48;;;;;;;9.65;4.25;;;;;;;7.91;100.00;96755.44;5019011;28;20431;-83
2023/11/13 09:30:18;;;;;;;5.32;3.00;;;;;;;7.96;100.00;96753.66;5024831;28;20467;-83
2023/11/13 09:32:46;;;;;;;5.57;2.88;;;;;;;8.03;100.00;96746.34;5018445;28;20661;-83
2023/11/13 09:35:24;;;;;;;4.90;2.80;;;;;;;8.10;100.00;96749.56;5006597;28;20418;-83
2023/11/13 09:37:52;;;;;;;4.80;2.67;;;;;;;8.18;100.00;96753.59;5012708;28;20474;-84
2023/11/13 09:40:20;;;;;;;5.90;3.00;;;;;;;8.27;100.00;96759.19;5008562;28;20448;-83
2023/11/13 09:42:50;;;;;;;3.47;2.22;;;;;;;8.35;100.00;96762.16;5010537;28;20919;-84
2023/11/13 09:45:18;;;;;;;5.88;2.70;;;;;;;8.41;100.00;96766.47;5016323;28;20389;-84
2023/11/13 09:47:46;;;;;;;4.18;2.35;;;;;;;8.46;100.00;96753.31;5025155;28;20420;-84
2023/11/13 09:50:16;;;;;;;5.85;2.80;;;;;;;8.49;100.00;96749.38;5024665;28;20392;-84
2023/11/13 09:52:47;;;;;;;4.05;2.20;;;;;;;8.51;100.00;96739.34;5025704;28;20410;-84
2023/11/13 09:55:18;;;;;;;2.60;1.90;;;;;;;8.56;100.00;96742.03;5006741;28;20399;-84
2023/11/13 09:57:45;;;;;;;3.40;1.98;;;;;;;8.59;100.00;96735.44;5004120;28;20417;-85
2023/11/13 10:00:16;;;;;;;3.07;1.70;;;;;;;8.61;100.00;96720.97;5005214;28;20474;-84
2023/11/13 10:02:46;;;;;;;4.73;1.60;;;;;;;8.63;100.00;96716.22;5017141;28;20468;-85
2023/11/13 10:05:15;;;;;;;5.10;1.85;;;;;;;8.66;100.00;96707.78;5018234;28;20398;-83
2023/11/13 10:07:44;;;;;;;5.50;2.30;;;;;;;8.71;100.00;96699.13;5007647;28;20418;-83
2023/11/13 10:10:17;;;;;;;5.22;1.83;;;;;;;8.78;100.00;96718.16;5007436;28;20406;-83
2023/11/13 10:12:44;;;;;;;2.50;1.38;;;;;;;8.83;100.00;96718.97;5008216;28;20402;-84
2023/11/13 10:15:14;;;;;;;2.28;1.50;;;;;;;8.87;100.00;96720.03;5008346;28;20403;-84
2023/11/13 10:17:42;;;;;;;7.63;2.17;;;;;;;8.93;100.00;96719.03;5014313;28;20492;-84
2023/11/13 10:20:11;;;;;;;5.15;1.77;;;;;;;8.96;100.00;96707.16;5022345;28;20492;-84
2023/11/13 10:22:40;;;;;;;5.35;1.90;;;;;;;9.01;100.00;96712.47;5017832;28;20464;-84
2023/11/13 10:25:11;;;;;;;3.05;1.77;;;;;;;9.04;100.00;96706.66;5019848;28;20405;-84
2023/11/13 10:27:42;;;;;;;3.95;1.70;;;;;;;9.07;100.00;96700.88;5000960;28;20847;-84
2023/11/13 10:30:10;;;;;;;6.60;2.00;;;;;;;9.13;100.00;96702.50;4999412;28;20405;-80
2023/11/13 10:32:36;;;;;;;3.67;1.77;;;;;;;9.14;100.00;96698.00;5010439;28;20435;-83
2023/11/13 10:35:09;;;;;;;3.83;1.80;;;;;;;9.18;100.00;96699.06;5021554;28;20411;-82
2023/11/13 10:37:36;;;;;;;4.43;2.13;;;;;;;9.19;100.00;96692.72;5021335;28;20404;-82
2023/11/13 10:40:07;;;;;;;2.78;1.50;;;;;;;9.22;100.00;96689.59;5021585;28;20437;-83
2023/11/13 10:42:33;;;;;;;2.42;1.40;;;;;;;9.25;100.00;96683.78;5013070;28;20398;-83
2023/11/13 10:45:01;;;;;;;3.25;1.70;;;;;;;9.28;100.00;96670.06;5002146;28;20666;-83
2023/11/13 10:47:30;;;;;;;10.00;2.17;;;;;;;9.38;100.00;96654.25;5001474;28;20418;-83
2023/11/13 10:49:58;;;;;;;6.70;2.35;;;;;;;9.45;100.00;96646.06;5001266;28;20399;-82
2023/11/13 10:52:27;;;;;;;3.90;1.85;;;;;;;9.49;100.00;96637.34;5015403;28;20397;-83
2023/11/13 10:54:56;;;;;;;2.05;1.60;;;;;;;9.55;100.00;96630.22;5020986;28;20404;-83
2023/11/13 10:57:24;;;;;;;6.53;2.13;;;;;;;9.62;100.00;96638.72;5019830;28;20508;-83
2023/11/13 10:59:52;;;;;;;11.30;2.30;;;;;;;9.70;100.00;96631.03;5019948;28;20464;-84
2023/11/13 11:02:26;;;;;;;5.95;2.10;;;;;;;9.72;100.00;96636.06;5020912;28;20432;-84
2023/11/13 11:04:56;;;;;;;11.18;1.98;;;;;;;9.80;100.00;96632.09;5020991;28;20409;-83
2023/11/13 11:07:26;;;;;;;6.30;1.73;;;;;;;9.80;100.00;96656.69;5021405;28;20424;-82
2023/11/13 11:10:05;;;;;;;6.93;1.98;;;;;;;9.88;100.00;96644.78;5021557;28;20420;-83
2023/11/13 11:12:36;;;;;;;7.38;1.98;;;;;;;9.88;100.00;96642.16;5020641;28;20459;-84
2023/11/13 11:15:29;;;;;;;6.55;2.10;;;;;;;9.88;100.00;96645.59;5020798;28;20397;-84
2023/11/13 11:18:05;;;;;;;6.53;1.83;;;;;;;9.89;100.00;96649.03;5006631;28;20402;-81
2023/11/13 11:20:43;;;;;;;5.20;1.73;;;;;;;9.92;100.00;96641.34;5002012;28;20911;-83
2023/11/13 11:23:12;;;;;;;4.30;1.90;;;;;;;9.94;100.00;96643.72;5002324;28;20395;-82
2023/11/13 11:25:47;;;;;;;9.07;2.38;;;;;;;9.97;100.00;96640.56;5012246;28;20458;-81
2023/11/13 11:28:43;;;;;;;6.93;2.50;;;;;;;9.98;100.00;96629.72;5013537;28;20428;-82
2023/11/13 11:31:44;;;;;;;7.65;2.30;;;;;;;10.02;100.00;96629.97;5024897;28;20373;-82
2023/11/13 11:34:18;;;;;;;8.52;2.17;;;;;;;10.05;100.00;96638.19;5006892;28;20461;-82